Time;durP1;ratioP1;P1;durP2;ratioP2;P2;SDS_P1;SDS_P2;PMS_P1;PMS_P2;Temp;Humidity;BMP_temperature;BMP_pressure;BME280_temperature;BME280_humidity;BME280_pressure;Samples;Min_cycle;Max_cycle;Signal;HPM_P1;HPM_P2
2023/05/19 00:00:35;;;;;;;15.02;11.23;;;;;;;9.09;68.68;102430.81;5056412;28;20016;-83
2023/05/19 00:03:03;;;;;;;14.07;11.15;;;;;;;9.04;68.98;102426.50;5038389;28;20698;-83
2023/05/19 00:05:29;;;;;;;13.45;11.70;;;;;;;8.94;69.75;102431.09;5060662;28;20020;-83
2023/05/19 00:07:57;;;;;;;13.40;10.43;;;;;;;8.92;69.55;102433.78;5053186;28;20029;-82
2023/05/19 00:10:23;;;;;;;16.40;11.70;;;;;;;8.85;69.88;102425.97;5044460;28;20028;-82
2023/05/19 00:12:50;;;;;;;14.73;11.55;;;;;;;8.90;70.22;102432.94;5064414;28;20100;-83
2023/05/19 00:15:15;;;;;;;15.80;11.30;;;;;;;8.84;70.27;102426.88;5046322;28;20048;-82
2023/05/19 00:17:43;;;;;;;13.25;11.15;;;;;;;8.84;71.06;102429.53;5045345;28;20020;-82
2023/05/19 00:20:10;;;;;;;12.82;11.25;;;;;;;8.78;70.60;102425.22;5026092;28;20021;-84
2023/05/19 00:22:36;;;;;;;12.75;11.38;;;;;;;8.76;71.49;102418.16;5049727;28;20618;-83
2023/05/19 00:25:02;;;;;;;16.08;11.40;;;;;;;8.72;70.96;102423.53;5050662;28;20071;-84
2023/05/19 00:27:27;;;;;;;15.77;11.25;;;;;;;8.69;71.46;102420.94;5060574;28;20504;-83
2023/05/19 00:29:52;;;;;;;14.30;11.82;;;;;;;8.68;71.09;102415.66;5052363;28;20051;-83
2023/05/19 00:32:17;;;;;;;15.20;11.95;;;;;;;8.62;71.69;102413.97;5041774;28;20025;-82
2023/05/19 00:34:43;;;;;;;15.02;10.88;;;;;;;8.57;72.18;102414.94;5057547;28;20029;-83
2023/05/19 00:37:08;;;;;;;16.33;11.60;;;;;;;8.57;72.17;102412.28;5059626;28;20082;-83
2023/05/19 00:39:34;;;;;;;14.73;11.75;;;;;;;8.64;72.42;102405.97;5054692;28;20040;-83
2023/05/19 00:41:59;;;;;;;14.48;11.57;;;;;;;8.58;72.74;102401.66;5034400;28;20025;-85
2023/05/19 00:44:24;;;;;;;17.60;11.88;;;;;;;8.56;72.82;102402.59;5062046;28;20609;-82
2023/05/19 00:46:50;;;;;;;14.65;11.95;;;;;;;8.59;73.38;102398.09;5054170;28;20341;-84
2023/05/19 00:49:15;;;;;;;16.00;11.73;;;;;;;8.55;73.39;102399.06;5055900;28;20082;-83
2023/05/19 00:51:41;;;;;;;16.00;12.40;;;;;;;8.49;73.50;102396.53;5052902;28;20020;-84
2023/05/19 00:54:07;;;;;;;15.23;11.48;;;;;;;8.50;72.96;102400.06;5035913;28;20036;-84
2023/05/19 00:56:32;;;;;;;14.07;11.77;;;;;;;8.53;73.66;102392.03;5050594;28;20021;-84
2023/05/19 00:58:58;;;;;;;16.00;11.55;;;;;;;8.40;73.79;102394.00;5058987;28;20033;-84
2023/05/19 01:01:25;;;;;;;14.77;11.55;;;;;;;8.45;73.64;102394.84;5056249;28;20071;-82
2023/05/19 01:03:51;;;;;;;14.65;12.00;;;;;;;8.39;74.21;102397.56;5049971;28;20499;-83
2023/05/19 01:06:17;;;;;;;15.85;11.88;;;;;;;8.28;74.07;102395.09;5048409;28;20486;-83
2023/05/19 01:08:43;;;;;;;14.73;11.57;;;;;;;8.31;74.58;102388.84;5050572;28;20429;-83
2023/05/19 01:11:09;;;;;;;16.98;11.82;;;;;;;8.17;74.57;102397.03;5034641;28;20098;-83
2023/05/19 01:13:35;;;;;;;16.42;11.95;;;;;;;8.11;75.08;102398.00;5058095;28;20039;-83
2023/05/19 01:16:12;;;;;;;14.18;11.68;;;;;;;8.03;75.10;102399.03;5051860;28;20182;-83
2023/05/19 01:18:54;;;;;;;14.07;11.63;;;;;;;7.96;75.68;102399.09;5050311;28;20112;-82
2023/05/19 01:21:47;;;;;;;13.80;12.00;;;;;;;7.96;75.13;102391.16;5055345;28;20130;-82
2023/05/19 01:24:39;;;;;;;15.93;11.82;;;;;;;7.97;75.69;102406.16;5058965;28;20036;-83
2023/05/19 01:27:26;;;;;;;17.58;12.85;;;;;;;7.90;75.56;102393.00;5053785;28;20033;-83
2023/05/19 01:30:25;;;;;;;16.75;12.75;;;;;;;7.94;76.14;102400.91;5058650;28;20062;-83
2023/05/19 01:32:53;;;;;;;16.77;13.25;;;;;;;7.93;76.21;102396.50;5053695;28;20329;-83
2023/05/19 01:35:23;;;;;;;15.60;12.82;;;;;;;7.89;76.98;102393.91;5037375;28;20044;-83
2023/05/19 01:37:51;;;;;;;17.80;13.55;;;;;;;7.85;77.23;102395.72;5052257;28;20016;-83
2023/05/19 01:40:18;;;;;;;17.77;13.02;;;;;;;7.74;78.03;102401.22;5052624;28;20258;-83
2023/05/19 01:42:45;;;;;;;17.42;13.27;;;;;;;7.79;78.01;102400.25;5032841;28;20078;-82
2023/05/19 01:45:11;;;;;;;17.35;13.48;;;;;;;7.70;78.64;102398.63;5058763;28;20506;-82
2023/05/19 01:47:41;;;;;;;16.85;13.15;;;;;;;7.76;78.68;102389.69;5047622;28;20496;-82
2023/05/19 01:50:06;;;;;;;16.85;13.20;;;;;;;7.72;79.04;102394.16;5056752;28;20043;-83
2023/05/19 01:52:32;;;;;;;17.52;14.07;;;;;;;7.70;79.44;102403.94;5055764;28;20042;-82
2023/05/19 01:54:57;;;;;;;16.05;13.02;;;;;;;7.62;79.21;102393.44;5041490;28;20036;-82
2023/05/19 01:57:58;;;;;;;16.77;13.70;;;;;;;7.59;80.19;102390.81;5056458;28;20069;-82
2023/05/19 02:00:29;;;;;;;14.77;13.05;;;;;;;7.57;80.05;102389.97;5055826;28;20115;-83
2023/05/19 02:03:12;;;;;;;15.93;13.65;;;;;;;7.49;80.48;102383.91;5033896;28;20556;-82
2023/05/19 02:06:05;;;;;;;17.38;13.23;;;;;;;7.49;80.95;102384.78;5042360;28;20029;-83
2023/05/19 02:08:49;;;;;;;18.17;13.10;;;;;;;7.47;81.10;102381.25;5032692;28;20028;-83
2023/05/19 02:11:36;;;;;;;15.73;13.68;;;;;;;7.43;81.14;102373.38;5052751;28;20048;-84
2023/05/19 02:14:12;;;;;;;15.20;13.18;;;;;;;7.38;82.13;102377.84;5048803;28;20607;-83
2023/05/19 02:16:37;;;;;;;17.70;13.73;;;;;;;7.37;82.34;102374.34;5058307;28;20216;-83
2023/05/19 02:19:03;;;;;;;17.20;13.65;;;;;;;7.32;82.62;102380.59;5041829;28;20485;-83
2023/05/19 02:21:28;;;;;;;19.35;14.40;;;;;;;7.34;82.84;102387.59;5055801;28;20040;-84
2023/05/19 02:23:53;;;;;;;17.40;14.23;;;;;;;7.32;83.11;102378.81;5041995;28;20025;-83
2023/05/19 02:26:19;;;;;;;16.13;14.45;;;;;;;7.26;83.62;102375.38;5041273;28;20172;-83
2023/05/19 02:28:44;;;;;;;16.65;14.10;;;;;;;7.24;83.87;102373.63;5057207;28;20056;-83
2023/05/19 02:31:09;;;;;;;19.15;15.02;;;;;;;7.20;84.22;102377.19;5052326;28;20033;-83
2023/05/19 02:33:35;;;;;;;18.40;14.63;;;;;;;7.27;83.99;102375.34;5056656;28;20020;-82
2023/05/19 02:36:00;;;;;;;19.65;14.75;;;;;;;7.19;84.29;102371.91;5051552;28;20047;-83
2023/05/19 02:38:26;;;;;;;19.70;14.68;;;;;;;7.20;84.51;102365.72;5036570;28;20520;-83
2023/05/19 02:40:52;;;;;;;17.33;14.43;;;;;;;7.18;84.69;102373.69;5049252;28;20501;-83
2023/05/19 02:43:17;;;;;;;22.65;15.38;;;;;;;7.17;84.74;102371.06;5057243;28;20094;-82
2023/05/19 02:45:43;;;;;;;21.17;15.32;;;;;;;7.12;84.98;102363.19;5048184;28;20412;-83
2023/05/19 02:48:08;;;;;;;21.58;15.13;;;;;;;7.10;85.36;102364.94;5053029;28;20036;-83
2023/05/19 02:50:33;;;;;;;20.15;14.60;;;;;;;7.16;85.18;102369.31;5052024;28;20461;-83
2023/05/19 02:52:59;;;;;;;24.63;16.13;;;;;;;7.07;85.54;102369.44;5056288;28;20361;-83
2023/05/19 02:55:24;;;;;;;19.50;15.55;;;;;;;7.07;85.95;102362.38;5057204;28;20565;-82
2023/05/19 02:57:50;;;;;;;19.13;15.63;;;;;;;7.09;86.07;102364.97;5054542;28;20037;-82
2023/05/19 03:00:15;;;;;;;20.77;15.40;;;;;;;7.08;85.77;102358.81;5035985;28;20028;-83
2023/05/19 03:02:42;;;;;;;24.15;16.10;;;;;;;6.95;86.67;102354.56;5057044;28;20527;-83
2023/05/19 03:05:09;;;;;;;20.17;15.52;;;;;;;6.94;87.39;102358.13;5052303;28;20536;-82
2023/05/19 03:07:34;;;;;;;20.05;15.82;;;;;;;6.91;87.19;102353.72;5053961;28;20032;-83
2023/05/19 03:10:02;;;;;;;18.65;15.38;;;;;;;6.94;87.55;102360.75;5054520;28;20032;-83
2023/05/19 03:12:28;;;;;;;19.73;15.50;;;;;;;6.93;87.66;102358.97;5048299;28;20045;-83
2023/05/19 03:14:53;;;;;;;18.98;15.40;;;;;;;6.88;88.16;102364.31;5032096;28;20025;-84
2023/05/19 03:17:18;;;;;;;19.25;14.27;;;;;;;6.89;88.46;102358.13;5037015;28;20029;-84
2023/05/19 03:19:44;;;;;;;19.25;15.05;;;;;;;6.84;88.83;102367.03;5057435;28;20020;-83
2023/05/19 03:22:09;;;;;;;19.85;14.82;;;;;;;6.85;89.11;102371.44;5047964;28;20025;-83
2023/05/19 03:24:35;;;;;;;17.52;14.50;;;;;;;6.78;89.86;102368.00;5057316;28;20133;-83
2023/05/19 03:27:01;;;;;;;21.65;15.10;;;;;;;6.73;90.27;102368.03;5061461;28;20036;-83
2023/05/19 03:29:26;;;;;;;19.38;14.02;;;;;;;6.76;90.67;102368.88;5053567;28;20040;-83
2023/05/19 03:31:52;;;;;;;18.23;14.25;;;;;;;6.70;90.92;102368.06;5054122;28;20513;-84
2023/05/19 03:34:17;;;;;;;16.67;14.00;;;;;;;6.76;90.96;102371.53;5032676;28;20099;-83
2023/05/19 03:36:43;;;;;;;17.38;13.80;;;;;;;6.71;91.36;102367.16;5056056;28;20036;-84
2023/05/19 03:39:09;;;;;;;16.80;13.48;;;;;;;6.62;91.74;102369.91;5037642;28;20035;-84
2023/05/19 03:41:35;;;;;;;17.75;14.23;;;;;;;6.66;92.03;102370.75;5056887;28;20481;-83
2023/05/19 03:44:00;;;;;;;18.13;14.20;;;;;;;6.62;92.22;102371.69;5057480;28;20028;-83
2023/05/19 03:46:26;;;;;;;21.23;14.25;;;;;;;6.58;93.51;102375.25;5059210;28;20863;-83
2023/05/19 03:48:51;;;;;;;20.65;14.20;;;;;;;6.55;93.77;102383.22;5064339;28;20799;-83
2023/05/19 03:51:16;;;;;;;17.17;13.60;;;;;;;6.51;93.92;102376.19;5042014;28;20700;-83
2023/05/19 03:53:42;;;;;;;18.08;12.98;;;;;;;6.49;94.53;102381.50;5062986;28;20211;-82
2023/05/19 03:56:12;;;;;;;19.25;13.57;;;;;;;6.51;94.82;102389.41;5032828;28;20025;-83
2023/05/19 03:58:39;;;;;;;17.70;13.43;;;;;;;6.57;94.80;102384.09;5057648;28;20032;-82
2023/05/19 04:01:04;;;;;;;17.10;13.07;;;;;;;6.55;95.42;102386.72;5059351;28;20119;-82
2023/05/19 04:03:30;;;;;;;17.98;13.32;;;;;;;6.49;95.88;102382.38;5061331;28;20108;-81
2023/05/19 04:05:55;;;;;;;18.90;13.88;;;;;;;6.44;96.29;102376.25;5050382;28;20033;-82
2023/05/19 04:08:20;;;;;;;16.38;13.23;;;;;;;6.51;96.46;102386.78;5062983;28;20032;-82
2023/05/19 04:10:46;;;;;;;19.17;13.38;;;;;;;6.53;96.42;102382.34;5057907;28;20086;-82
2023/05/19 04:13:11;;;;;;;15.82;13.32;;;;;;;6.57;96.60;102381.44;5051310;28;20044;-82
2023/05/19 04:15:36;;;;;;;19.92;13.23;;;;;;;6.49;97.40;102381.50;5044528;28;20048;-82
2023/05/19 04:18:02;;;;;;;20.15;14.13;;;;;;;6.58;96.93;102380.53;5048969;28;20025;-82
2023/05/19 04:20:28;;;;;;;21.20;13.85;;;;;;;6.51;98.01;102378.84;5052708;28;20037;-83
2023/05/19 04:22:53;;;;;;;21.58;14.45;;;;;;;6.50;98.52;102380.59;5044843;28;20028;-83
2023/05/19 04:25:19;;;;;;;16.42;12.45;;;;;;;6.52;98.35;102375.28;5044576;28;20416;-83
2023/05/19 04:27:44;;;;;;;17.02;13.70;;;;;;;6.53;98.30;102374.44;5053393;28;20560;-82
2023/05/19 04:30:10;;;;;;;15.65;12.82;;;;;;;6.57;98.43;102390.25;5043901;28;20029;-83
2023/05/19 04:32:36;;;;;;;24.90;14.82;;;;;;;6.56;98.80;102384.94;5031379;28;20048;-82
2023/05/19 04:35:03;;;;;;;15.95;13.57;;;;;;;6.55;99.19;102386.72;5050958;28;20436;-82
2023/05/19 04:37:28;;;;;;;19.63;13.60;;;;;;;6.56;99.38;102383.19;5049573;28;20202;-82
2023/05/19 04:39:54;;;;;;;24.13;14.18;;;;;;;6.54;99.60;102378.81;5040805;28;20028;-83
2023/05/19 04:42:19;;;;;;;20.38;13.98;;;;;;;6.59;99.47;102380.50;5053739;28;20036;-82
2023/05/19 04:44:48;;;;;;;16.70;13.27;;;;;;;6.63;99.50;102389.31;5049912;28;20039;-82
2023/05/19 04:47:13;;;;;;;16.48;13.00;;;;;;;6.70;99.29;102388.34;5054635;28;20055;-82
2023/05/19 04:49:39;;;;;;;17.40;13.80;;;;;;;6.72;99.11;102378.63;5057341;28;20473;-82
2023/05/19 04:52:06;;;;;;;19.30;13.45;;;;;;;6.77;99.31;102389.16;5043803;28;20477;-82
2023/05/19 04:54:33;;;;;;;16.63;13.27;;;;;;;6.75;99.51;102383.88;5024937;28;20593;-82
2023/05/19 04:56:58;;;;;;;17.98;13.43;;;;;;;6.77;99.23;102384.72;5041335;28;20536;-82
2023/05/19 04:59:24;;;;;;;18.48;13.63;;;;;;;6.82;99.33;102382.94;5059485;28;20028;-82
2023/05/19 05:01:49;;;;;;;16.02;14.18;;;;;;;6.90;99.16;102388.16;5061515;28;20032;-82
2023/05/19 05:04:14;;;;;;;19.55;13.23;;;;;;;6.91;99.48;102387.25;5040308;28;20040;-81
2023/05/19 05:06:41;;;;;;;18.17;13.25;;;;;;;7.04;99.00;102382.69;5041886;28;20021;-81
2023/05/19 05:09:06;;;;;;;16.83;14.20;;;;;;;7.10;98.83;102374.66;5060446;28;20307;-82
2023/05/19 05:11:32;;;;;;;19.92;13.63;;;;;;;7.19;98.59;102369.25;5056281;28;20517;-83
2023/05/19 05:13:58;;;;;;;19.55;13.20;;;;;;;7.30;98.13;102369.13;5045812;28;20043;-82
2023/05/19 05:16:23;;;;;;;20.25;13.60;;;;;;;7.36;97.37;102380.53;5053454;28;20035;-82
2023/05/19 05:18:49;;;;;;;16.65;12.38;;;;;;;7.61;96.66;102380.22;5035145;28;20027;-82
2023/05/19 05:21:14;;;;;;;17.60;13.82;;;;;;;7.72;96.28;102386.22;5058605;28;20033;-82
2023/05/19 05:23:40;;;;;;;18.13;12.52;;;;;;;7.93;95.48;102387.66;5057229;28;20112;-81
2023/05/19 05:26:12;;;;;;;18.63;12.85;;;;;;;8.08;94.80;102389.22;5055773;28;20036;-82
2023/05/19 05:28:38;;;;;;;14.18;12.65;;;;;;;8.27;93.79;102382.69;5059239;28;20032;-82
2023/05/19 05:31:06;;;;;;;15.98;12.50;;;;;;;8.32;92.29;102388.81;5052214;28;20074;-81
2023/05/19 05:33:31;;;;;;;17.17;12.02;;;;;;;8.48;91.73;102393.00;5054848;28;20052;-81
2023/05/19 05:35:57;;;;;;;17.23;12.23;;;;;;;8.63;91.28;102389.19;5056881;28;20060;-83
2023/05/19 05:38:23;;;;;;;14.75;12.18;;;;;;;8.70;89.86;102384.66;5041774;28;20111;-83
2023/05/19 05:40:48;;;;;;;15.25;11.48;;;;;;;8.85;88.93;102389.66;5052114;28;20027;-83
2023/05/19 05:43:13;;;;;;;15.48;11.82;;;;;;;9.03;88.38;102384.88;5037360;28;20029;-83
2023/05/19 05:45:39;;;;;;;15.25;11.07;;;;;;;9.13;87.49;102383.81;5056021;28;20036;-83
2023/05/19 05:48:05;;;;;;;18.52;12.20;;;;;;;9.22;87.34;102384.50;5054414;28;20036;-83
2023/05/19 05:50:30;;;;;;;14.32;10.88;;;;;;;9.44;86.58;102387.56;5038475;28;20425;-82
2023/05/19 05:52:56;;;;;;;17.27;11.45;;;;;;;9.71;85.35;102382.56;5054073;28;20039;-83
2023/05/19 05:55:23;;;;;;;13.93;11.40;;;;;;;9.85;83.82;102383.09;5053068;28;20031;-83
2023/05/19 05:57:49;;;;;;;16.65;11.15;;;;;;;10.05;82.41;102379.13;5048690;28;20020;-82
2023/05/19 06:00:15;;;;;;;15.93;11.27;;;;;;;10.22;81.67;102382.22;5046986;28;20064;-83
2023/05/19 06:02:45;;;;;;;12.50;10.13;;;;;;;10.59;81.17;102381.34;5058090;28;20055;-82
2023/05/19 06:05:11;;;;;;;13.60;10.15;;;;;;;10.73;79.19;102382.69;5056426;28;20088;-83
2023/05/19 06:07:39;;;;;;;12.80;10.07;;;;;;;10.69;77.17;102380.16;5058618;28;20020;-83
2023/05/19 06:10:06;;;;;;;13.55;10.13;;;;;;;10.88;77.62;102384.09;5049843;28;20042;-82
2023/05/19 06:12:31;;;;;;;15.65;10.10;;;;;;;10.89;77.85;102385.81;5051041;28;20075;-83
2023/05/19 06:14:56;;;;;;;13.65;9.90;;;;;;;10.88;76.80;102389.41;5050185;28;20128;-83
2023/05/19 06:17:22;;;;;;;15.98;9.77;;;;;;;10.91;76.63;102394.66;5050032;28;20420;-82
2023/05/19 06:19:47;;;;;;;14.95;9.50;;;;;;;10.88;76.12;102392.06;5041957;28;20028;-83
2023/05/19 06:22:12;;;;;;;12.10;9.85;;;;;;;11.01;76.76;102397.06;5028032;28;20083;-83
2023/05/19 06:24:38;;;;;;;11.02;9.20;;;;;;;11.00;76.04;102395.31;5057951;28;20457;-83
2023/05/19 06:27:04;;;;;;;11.88;9.43;;;;;;;11.00;76.08;102400.66;5055219;28;20483;-83
2023/05/19 06:29:29;;;;;;;13.75;9.95;;;;;;;11.11;76.15;102399.41;5053621;28;20124;-83
2023/05/19 06:31:55;;;;;;;13.23;9.10;;;;;;;11.23;75.86;102395.53;5055280;28;20099;-83
2023/05/19 06:34:20;;;;;;;10.75;9.43;;;;;;;11.50;74.93;102395.66;5056259;28;20032;-83
2023/05/19 06:36:45;;;;;;;14.35;9.63;;;;;;;11.73;73.46;102388.66;5054858;28;20028;-83
2023/05/19 06:39:11;;;;;;;13.13;9.25;;;;;;;12.01;73.40;102400.31;5053054;28;20082;-83
2023/05/19 06:41:36;;;;;;;11.23;9.30;;;;;;;12.08;72.05;102399.19;5058652;28;20040;-83
2023/05/19 06:44:02;;;;;;;10.65;8.40;;;;;;;12.14;71.25;102399.88;5052854;28;20036;-83
2023/05/19 06:46:28;;;;;;;12.05;9.02;;;;;;;12.30;71.32;102389.56;5044158;28;20111;-83
2023/05/19 06:48:53;;;;;;;13.60;9.18;;;;;;;12.54;71.48;102393.19;5048099;28;20031;-83
2023/05/19 06:51:20;;;;;;;10.60;8.68;;;;;;;12.68;70.48;102396.25;5051238;28;20431;-83
2023/05/19 06:53:47;;;;;;;14.00;9.15;;;;;;;12.76;69.79;102396.00;5054856;28;20120;-83
2023/05/19 06:56:13;;;;;;;13.52;8.75;;;;;;;12.79;69.82;102389.66;5054167;28;20104;-83
2023/05/19 06:58:39;;;;;;;13.40;9.25;;;;;;;12.87;69.02;102391.13;5055430;28;20059;-84
2023/05/19 07:01:04;;;;;;;12.60;8.77;;;;;;;13.01;69.74;102392.44;5064790;28;20109;-83
2023/05/19 07:03:30;;;;;;;13.88;9.10;;;;;;;13.04;68.27;102382.50;5057490;28;20020;-82
2023/05/19 07:05:55;;;;;;;11.80;8.55;;;;;;;13.03;67.70;102383.41;5062268;28;20045;-82
2023/05/19 07:08:20;;;;;;;12.15;8.25;;;;;;;13.06;66.70;102383.31;5053817;28;20400;-83
2023/05/19 07:10:46;;;;;;;12.52;8.52;;;;;;;13.00;67.02;102388.00;5054118;28;20114;-83
2023/05/19 07:13:11;;;;;;;12.63;8.35;;;;;;;13.21;66.57;102392.59;5062210;28;20063;-83
2023/05/19 07:15:36;;;;;;;11.80;8.38;;;;;;;13.34;65.76;102375.19;5061409;28;20024;-83
2023/05/19 07:18:02;;;;;;;13.13;7.97;;;;;;;13.60;65.29;102381.31;5062374;28;20457;-83
2023/05/19 07:20:27;;;;;;;12.63;8.30;;;;;;;14.00;64.05;102390.44;5050730;28;20029;-83
2023/05/19 07:22:53;;;;;;;12.15;8.40;;;;;;;14.29;62.63;102387.41;5052640;28;20271;-84
2023/05/19 07:25:18;;;;;;;11.35;7.43;;;;;;;14.66;61.08;102386.75;5054021;28;20028;-81
2023/05/19 07:27:44;;;;;;;12.40;7.95;;;;;;;15.04;59.85;102386.00;5051661;28;20032;-82
2023/05/19 07:30:10;;;;;;;9.50;7.95;;;;;;;15.29;58.33;102381.25;5062208;28;20069;-83
2023/05/19 07:32:35;;;;;;;10.60;7.63;;;;;;;15.46;58.30;102377.78;5055293;28;20024;-83
2023/05/19 07:35:01;;;;;;;12.40;7.35;;;;;;;15.83;56.61;102387.66;5052795;28;20040;-83
2023/05/19 07:37:27;;;;;;;13.23;8.18;;;;;;;15.78;55.53;102387.03;5057897;28;20020;-83
2023/05/19 07:39:52;;;;;;;12.90;7.00;;;;;;;15.90;54.40;102391.81;5059840;28;20063;-83
2023/05/19 07:42:17;;;;;;;13.20;7.38;;;;;;;15.99;54.40;102389.63;5062652;28;20051;-83
2023/05/19 07:44:43;;;;;;;12.80;6.82;;;;;;;16.04;54.09;102387.56;5035485;28;20509;-83
2023/05/19 07:47:08;;;;;;;8.73;6.95;;;;;;;16.05;53.50;102394.66;5048671;28;20072;-85
2023/05/19 07:49:34;;;;;;;8.40;6.13;;;;;;;16.19;52.90;102387.69;5054675;28;20477;-85
2023/05/19 07:52:00;;;;;;;10.73;6.40;;;;;;;16.43;53.05;102393.66;5058008;28;20051;-85
2023/05/19 07:54:25;;;;;;;10.52;6.38;;;;;;;16.67;51.91;102390.63;5054531;28;20032;-85
2023/05/19 07:56:51;;;;;;;10.27;6.22;;;;;;;16.54;51.09;102385.00;5054866;28;20016;-85
2023/05/19 07:59:16;;;;;;;9.27;6.07;;;;;;;16.37;51.75;102393.06;5061401;28;20074;-85
2023/05/19 08:01:42;;;;;;;10.90;6.10;;;;;;;16.54;52.24;102384.16;5059644;28;20032;-87
2023/05/19 08:04:07;;;;;;;7.63;5.63;;;;;;;17.15;50.53;102378.25;5059382;28;20028;-85
2023/05/19 08:06:34;;;;;;;12.73;6.28;;;;;;;17.59;48.54;102375.78;5060422;28;20385;-86
2023/05/19 08:08:59;;;;;;;11.25;6.07;;;;;;;18.32;47.42;102359.94;5055328;28;20484;-87
2023/05/19 08:11:25;;;;;;;10.82;5.43;;;;;;;18.95;45.25;102366.09;5059580;28;20153;-85
2023/05/19 08:13:51;;;;;;;12.57;5.60;;;;;;;19.59;44.06;102362.84;5055230;28;20573;-85
2023/05/19 08:16:16;;;;;;;10.77;5.93;;;;;;;20.07;42.26;102360.63;5039959;28;20090;-83
2023/05/19 08:18:41;;;;;;;8.38;5.35;;;;;;;21.06;40.86;102357.44;5053391;28;20469;-84
2023/05/19 08:21:07;;;;;;;10.43;5.70;;;;;;;21.37;39.26;102356.13;5043008;28;20067;-83
2023/05/19 08:23:32;;;;;;;9.07;5.00;;;;;;;22.06;38.27;102349.16;5048396;28;20017;-83
2023/05/19 08:25:58;;;;;;;23.02;6.45;;;;;;;22.28;36.90;102345.72;5047881;28;20035;-83
2023/05/19 08:28:23;;;;;;;79.90;12.32;;;;;;;22.50;36.74;102347.66;5061246;28;20274;-85
2023/05/19 08:30:51;;;;;;;18.98;5.25;;;;;;;23.11;35.89;102344.66;5058195;28;20470;-85
2023/05/19 08:33:16;;;;;;;8.02;4.70;;;;;;;23.29;34.73;102335.03;5036027;28;20465;-83
2023/05/19 08:35:42;;;;;;;7.05;4.03;;;;;;;23.85;33.06;102343.09;5034447;28;20044;-83
2023/05/19 08:38:07;;;;;;;10.02;4.55;;;;;;;23.89;33.67;102345.56;5033910;28;20120;-83
2023/05/19 08:40:36;;;;;;;8.65;4.35;;;;;;;24.09;32.77;102336.59;5055951;28;20414;-83
2023/05/19 08:43:02;;;;;;;8.00;3.33;;;;;;;24.70;32.52;102347.66;5060181;28;20040;-83
2023/05/19 08:45:28;;;;;;;7.10;3.40;;;;;;;25.48;31.40;102329.00;5052737;28;20032;-83
2023/05/19 08:47:54;;;;;;;7.60;3.10;;;;;;;25.91;29.83;102325.94;5055465;28;20685;-82
2023/05/19 08:50:35;;;;;;;7.15;3.53;;;;;;;26.02;30.39;102333.13;5056233;28;20127;-83
2023/05/19 08:53:03;;;;;;;8.60;3.20;;;;;;;25.92;28.93;102332.25;5054673;28;20060;-82
2023/05/19 08:55:45;;;;;;;10.48;3.10;;;;;;;26.28;30.00;102319.75;5055593;28;20036;-82
2023/05/19 08:58:11;;;;;;;5.70;2.50;;;;;;;25.87;27.46;102319.03;5060147;28;20029;-83
2023/05/19 09:00:37;;;;;;;8.02;2.80;;;;;;;25.85;27.75;102318.31;5039381;28;20025;-83
2023/05/19 09:03:03;;;;;;;6.05;2.88;;;;;;;25.98;28.08;102315.31;5060227;28;20531;-93
2023/05/19 09:05:29;;;;;;;6.38;2.45;;;;;;;26.16;27.06;102324.50;5060246;28;20111;-85
2023/05/19 09:07:54;;;;;;;5.95;2.58;;;;;;;25.65;27.18;102319.28;5049245;28;20031;-84
2023/05/19 09:10:20;;;;;;;7.30;2.35;;;;;;;25.97;26.84;102319.91;5059873;28;20112;-86
2023/05/19 09:12:46;;;;;;;8.43;2.75;;;;;;;25.70;27.14;102316.97;5054219;28;20045;-87
2023/05/19 09:15:15;;;;;;;9.57;3.00;;;;;;;24.19;28.15;102323.94;5060449;28;20027;-86
2023/05/19 09:17:40;;;;;;;6.93;2.90;;;;;;;23.36;30.73;102311.78;5059875;28;20039;-87
2023/05/19 09:20:09;;;;;;;7.50;2.60;;;;;;;22.87;30.77;102323.91;5056258;28;20470;-86
2023/05/19 09:22:46;;;;;;;6.45;2.38;;;;;;;24.11;29.09;102315.56;5048587;28;20139;-84
2023/05/19 09:25:24;;;;;;;5.50;2.45;;;;;;;26.03;28.48;102292.03;5052591;28;20490;-85
2023/05/19 09:27:49;;;;;;;7.35;2.20;;;;;;;26.79;26.70;102292.06;5038521;28;20029;-85
2023/05/19 09:30:16;;;;;;;4.63;2.40;;;;;;;27.51;24.31;102295.94;5058228;28;20025;-83
2023/05/19 09:32:42;;;;;;;7.45;2.30;;;;;;;27.08;24.18;102294.69;5051003;28;20538;-84
2023/05/19 09:35:08;;;;;;;6.07;2.47;;;;;;;26.46;24.50;102300.78;5057809;28;20051;-83
2023/05/19 09:37:33;;;;;;;4.88;2.20;;;;;;;27.16;24.40;102296.69;5056326;28;20477;-84
2023/05/19 09:39:58;;;;;;;5.00;2.28;;;;;;;27.80;23.45;102290.28;5048646;28;20136;-83
2023/05/19 09:42:26;;;;;;;4.68;2.40;;;;;;;28.16;22.77;102295.72;5054211;28;20456;-82
2023/05/19 09:45:04;;;;;;;5.65;2.25;;;;;;;28.22;23.93;102296.97;5054216;28;20060;-82
2023/05/19 09:47:40;;;;;;;6.88;2.70;;;;;;;28.49;23.44;102294.13;5054582;28;20115;-82
2023/05/19 09:50:10;;;;;;;7.03;2.50;;;;;;;28.50;22.38;102286.75;5054395;28;20036;-84
2023/05/19 09:52:42;;;;;;;6.78;2.42;;;;;;;28.65;22.92;102296.13;5048492;28;20423;-82
2023/05/19 09:55:12;;;;;;;10.57;2.40;;;;;;;28.33;22.60;102296.72;5029271;28;20037;-84
2023/05/19 09:57:38;;;;;;;5.75;2.40;;;;;;;27.68;23.01;102298.84;5036463;28;20646;-83
2023/05/19 10:00:15;;;;;;;9.02;2.47;;;;;;;28.37;23.29;102302.75;5052151;28;20614;-81
2023/05/19 10:02:43;;;;;;;6.13;2.20;;;;;;;29.38;20.93;102297.50;5051045;28;20055;-83
2023/05/19 10:05:11;;;;;;;9.23;2.40;;;;;;;29.50;21.27;102288.81;5047677;28;20040;-83
2023/05/19 10:07:39;;;;;;;9.52;2.42;;;;;;;30.31;21.25;102298.22;5048691;28;20029;-84
2023/05/19 10:10:08;;;;;;;7.38;2.33;;;;;;;29.94;20.84;102304.19;5053052;28;20044;-84
2023/05/19 10:12:36;;;;;;;25.48;4.20;;;;;;;29.65;20.32;102302.78;5051519;28;20148;-85
2023/05/19 10:15:02;;;;;;;6.00;2.45;;;;;;;29.89;20.74;102288.22;5054406;28;20043;-83
2023/05/19 10:17:28;;;;;;;6.38;2.22;;;;;;;30.24;20.41;102299.94;5051716;28;20413;-83
2023/05/19 10:19:53;;;;;;;36.38;4.05;;;;;;;29.69;20.08;102292.31;5037739;28;20025;-83
2023/05/19 10:22:19;;;;;;;8.52;2.58;;;;;;;29.67;20.46;102288.88;5056435;28;20070;-82
2023/05/19 10:24:44;;;;;;;6.50;2.42;;;;;;;29.84;21.07;102285.13;5051515;28;20048;-82
2023/05/19 10:27:13;;;;;;;5.07;2.15;;;;;;;30.60;20.17;102286.66;5053242;28;20552;-83
2023/05/19 10:29:43;;;;;;;5.55;2.05;;;;;;;30.48;19.56;102285.31;5055579;28;20085;-86
2023/05/19 10:32:23;;;;;;;50.47;4.35;;;;;;;30.77;19.53;102279.28;5055317;28;20705;-85
2023/05/19 10:35:19;;;;;;;30.85;3.50;;;;;;;32.23;20.45;102284.94;5041639;28;20056;-85
2023/05/19 10:38:15;;;;;;;19.25;12.45;;;;;;;32.91;18.71;102272.03;5055394;28;20040;-81
2023/05/19 10:41:26;;;;;;;5.85;2.50;;;;;;;32.45;18.71;102286.00;5046560;28;20040;-81
2023/05/19 10:44:09;;;;;;;6.30;2.40;;;;;;;32.04;18.84;102278.06;4971950;28;20053;-82
2023/05/19 10:46:36;;;;;;;8.45;2.70;;;;;;;31.32;17.90;102269.28;4973599;28;20860;-82
2023/05/19 10:49:01;;;;;;;12.98;3.15;;;;;;;31.94;18.26;102269.22;4969951;28;20038;-82
2023/05/19 10:51:31;;;;;;;9.20;2.58;;;;;;;31.25;18.99;102261.69;4971468;28;20027;-82
2023/05/19 10:53:57;;;;;;;6.18;2.58;;;;;;;31.35;18.67;102255.13;4977681;28;20050;-84
2023/05/19 10:56:32;;;;;;;7.72;2.25;;;;;;;32.07;18.81;102265.84;4971506;28;20057;-85
2023/05/19 10:58:58;;;;;;;5.13;1.83;;;;;;;32.34;18.06;102264.38;4974499;28;20034;-82
2023/05/19 11:01:32;;;;;;;5.53;2.70;;;;;;;32.08;17.83;102259.28;4975829;28;20565;-81
2023/05/19 11:04:04;;;;;;;19.63;3.20;;;;;;;31.58;18.57;102264.28;4966972;28;20134;-82
2023/05/19 11:06:35;;;;;;;9.10;2.60;;;;;;;30.40;18.87;102272.44;4977289;28;20066;-81
2023/05/19 11:09:16;;;;;;;5.35;2.17;;;;;;;30.10;19.74;102268.50;4974010;28;20044;-81
2023/05/19 11:11:48;;;;;;;7.22;3.58;;;;;;;30.83;19.30;102270.31;4976828;28;20038;-83
2023/05/19 11:14:17;;;;;;;7.25;2.72;;;;;;;32.11;18.87;102265.28;4979089;28;20598;-84
2023/05/19 11:16:49;;;;;;;5.78;2.08;;;;;;;32.05;17.70;102268.75;4965889;28;20023;-84
2023/05/19 11:19:26;;;;;;;6.40;2.45;;;;;;;32.29;17.52;102262.19;5006092;28;20040;-82
2023/05/19 11:21:54;;;;;;;6.10;2.40;;;;;;;31.98;17.36;102267.81;5044708;28;20041;-82